Time;durP1;ratioP1;P1;durP2;ratioP2;P2;SDS_P1;SDS_P2;PMS_P1;PMS_P2;Temp;Humidity;BMP_temperature;BMP_pressure;BME280_temperature;BME280_humidity;BME280_pressure;Samples;Min_cycle;Max_cycle;Signal;HPM_P1;HPM_P2
2022/11/09 00:00:08;;;;;;;6.75;1.08;;;11.90;99.90;;;;;;5035482;28;20041;-65
2022/11/09 00:02:34;;;;;;;3.10;0.60;;;12.20;99.90;;;;;;5013684;28;20052;-65
2022/11/09 00:05:00;;;;;;;6.00;0.60;;;11.50;99.90;;;;;;5020864;28;20043;-64
2022/11/09 00:07:28;;;;;;;5.32;0.70;;;12.10;99.90;;;;;;5053642;28;20432;-64
2022/11/09 00:09:54;;;;;;;6.00;0.70;;;11.60;99.90;;;;;;5035798;28;20139;-64
2022/11/09 00:12:19;;;;;;;4.63;0.75;;;11.30;99.90;;;;;;5053127;28;20466;-65
2022/11/09 00:14:45;;;;;;;6.07;0.50;;;11.30;99.90;;;;;;5055747;28;20036;-65
2022/11/09 00:17:11;;;;;;;6.28;0.98;;;11.30;99.90;;;;;;5053857;28;20044;-64
2022/11/09 00:19:36;;;;;;;6.20;0.98;;;11.80;99.90;;;;;;5020420;28;20135;-64
2022/11/09 00:22:02;;;;;;;4.90;0.90;;;11.50;99.90;;;;;;5037854;28;20090;-64
2022/11/09 00:24:28;;;;;;;4.38;0.90;;;11.30;99.90;;;;;;5035444;28;20047;-64
2022/11/09 00:26:53;;;;;;;7.75;1.52;;;11.90;99.90;;;;;;5000679;28;20305;-64
2022/11/09 00:29:19;;;;;;;7.20;1.63;;;11.50;99.90;;;;;;5054267;28;20501;-64
2022/11/09 00:31:45;;;;;;;4.70;1.38;;;11.20;99.90;;;;;;5018925;28;20060;-65
2022/11/09 00:34:10;;;;;;;4.38;1.27;;;11.90;99.90;;;;;;5036279;28;20141;-64
2022/11/09 00:36:36;;;;;;;5.90;1.83;;;11.80;99.90;;;;;;5036988;28;20074;-64
2022/11/09 00:39:02;;;;;;;5.70;2.10;;;12.10;99.90;;;;;;5053768;28;20446;-65
2022/11/09 00:41:28;;;;;;;7.68;1.88;;;11.50;99.90;;;;;;5036341;28;20067;-65
2022/11/09 00:43:53;;;;;;;5.53;1.85;;;12.10;99.90;;;;;;5033698;28;20044;-65
2022/11/09 00:46:20;;;;;;;3.65;1.52;;;11.50;99.90;;;;;;5054299;28;20079;-64
2022/11/09 00:48:45;;;;;;;8.95;1.70;;;12.20;99.90;;;;;;5054298;28;20051;-65
2022/11/09 00:51:12;;;;;;;4.30;1.65;;;11.90;99.90;;;;;;5036789;28;20028;-65
2022/11/09 00:53:38;;;;;;;5.38;1.83;;;11.60;99.90;;;;;;5054442;28;20102;-66
2022/11/09 00:56:10;;;;;;;6.53;1.70;;;11.60;99.90;;;;;;5018774;28;20112;-66
2022/11/09 00:58:37;;;;;;;3.72;1.50;;;12.30;99.90;;;;;;5052101;28;20040;-65
2022/11/09 01:01:21;;;;;;;5.15;1.60;;;11.80;99.90;;;;;;5055038;28;20041;-65
2022/11/09 01:03:47;;;;;;;6.38;1.63;;;12.30;99.90;;;;;;5035459;28;20044;-66
2022/11/09 01:06:16;;;;;;;5.40;1.60;;;12.00;99.90;;;;;;5036095;28;20054;-66
2022/11/09 01:08:42;;;;;;;4.22;1.05;;;12.20;99.90;;;;;;5035663;28;20452;-65
2022/11/09 01:11:08;;;;;;;5.28;1.40;;;11.60;99.90;;;;;;5018068;28;20036;-66
2022/11/09 01:13:36;;;;;;;8.52;1.70;;;11.60;99.90;;;;;;5053514;28;20052;-65
2022/11/09 01:16:07;;;;;;;5.32;1.40;;;12.20;99.90;;;;;;5034321;28;20032;-65
2022/11/09 01:18:33;;;;;;;4.47;1.15;;;12.10;99.90;;;;;;5034942;28;20055;-65
2022/11/09 01:20:58;;;;;;;3.70;1.17;;;12.00;99.90;;;;;;5004024;28;20044;-63
2022/11/09 01:23:24;;;;;;;3.55;0.98;;;11.60;99.90;;;;;;5019560;28;20171;-65
2022/11/09 01:25:57;;;;;;;4.57;1.05;;;11.70;99.90;;;;;;5033917;28;20040;-65
2022/11/09 01:28:23;;;;;;;2.90;0.90;;;11.50;99.90;;;;;;5055373;28;20132;-65
2022/11/09 01:30:48;;;;;;;4.32;1.20;;;11.50;99.90;;;;;;5033687;28;20708;-65
2022/11/09 01:33:14;;;;;;;4.78;1.02;;;11.30;99.90;;;;;;5033445;28;20083;-65
2022/11/09 01:35:40;;;;;;;4.38;1.17;;;11.30;99.90;;;;;;5035820;28;20151;-64
2022/11/09 01:38:07;;;;;;;7.97;1.50;;;11.30;99.90;;;;;;5036491;28;20048;-65
2022/11/09 01:40:36;;;;;;;2.83;0.98;;;11.70;99.90;;;;;;5053831;28;20413;-64
2022/11/09 01:43:19;;;;;;;5.80;1.52;;;11.20;99.90;;;;;;5035215;28;20145;-64
2022/11/09 01:45:50;;;;;;;6.35;1.77;;;11.30;99.90;;;;;;5034665;28;20040;-65
2022/11/09 01:48:31;;;;;;;6.03;1.58;;;11.70;99.90;;;;;;5034257;28;20143;-65
2022/11/09 01:51:02;;;;;;;7.93;1.58;;;11.20;99.90;;;;;;5036866;28;20464;-66
2022/11/09 01:53:35;;;;;;;6.15;1.35;;;11.30;99.90;;;;;;5027780;28;20478;-64
2022/11/09 01:56:03;;;;;;;;;;;11.90;99.90;;;;;;5038583;28;20072;-64
2022/11/09 01:58:39;;;;;;;8.95;1.58;;;11.90;99.90;;;;;;5022155;28;19927;-64
2022/11/09 02:01:09;;;;;;;6.00;1.50;;;11.40;99.90;;;;;;5039132;28;20052;-64
2022/11/09 02:03:40;;;;;;;5.43;1.70;;;11.90;99.90;;;;;;5055017;28;20086;-64
2022/11/09 02:06:10;;;;;;;8.88;1.33;;;11.50;99.90;;;;;;5055808;28;20458;-65
2022/11/09 02:08:36;;;;;;;9.80;1.63;;;11.50;99.90;;;;;;5058304;28;20102;-64
2022/11/09 02:11:14;;;;;;;10.02;2.08;;;12.20;99.90;;;;;;5039283;28;20041;-65
2022/11/09 02:13:48;;;;;;;13.50;1.77;;;11.60;99.90;;;;;;5037816;28;20487;-64
2022/11/09 02:16:14;;;;;;;8.00;1.65;;;11.70;99.90;;;;;;5056971;28;20051;-65
2022/11/09 02:18:55;;;;;;;6.68;1.23;;;11.70;99.90;;;;;;5019401;28;20048;-66
2022/11/09 02:21:24;;;;;;;7.40;1.40;;;11.80;99.90;;;;;;5037597;28;20098;-64
2022/11/09 02:23:50;;;;;;;6.15;1.35;;;11.70;99.90;;;;;;5022817;28;20460;-65
2022/11/09 02:26:35;;;;;;;5.22;1.17;;;11.80;99.90;;;;;;5040011;28;20113;-65
2022/11/09 02:29:04;;;;;;;5.68;1.15;;;12.20;99.90;;;;;;5055188;28;20090;-66
2022/11/09 02:31:35;;;;;;;6.38;1.40;;;12.30;99.90;;;;;;5057500;28;20083;-66
2022/11/09 02:34:27;;;;;;;9.07;1.70;;;12.20;99.90;;;;;;5037222;28;20163;-66
2022/11/09 02:36:52;;;;;;;7.57;1.40;;;11.80;99.90;;;;;;5033028;28;20102;-65
2022/11/09 02:39:24;;;;;;;7.35;1.20;;;11.90;99.90;;;;;;5038525;28;20597;-64
2022/11/09 02:41:54;;;;;;;6.53;1.00;;;12.30;99.90;;;;;;5022416;28;20043;-65
2022/11/09 02:44:22;;;;;;;8.73;1.40;;;12.00;99.90;;;;;;5054779;28;20032;-66
2022/11/09 02:46:48;;;;;;;5.13;1.60;;;12.10;99.90;;;;;;5039998;28;20035;-64
2022/11/09 02:49:14;;;;;;;7.30;1.25;;;11.90;99.90;;;;;;5031533;28;20133;-64
2022/11/09 02:51:40;;;;;;;7.45;1.02;;;11.80;99.90;;;;;;5048723;28;20509;-64
2022/11/09 02:54:05;;;;;;;7.75;1.45;;;12.10;99.90;;;;;;5048315;28;20126;-66
2022/11/09 02:56:31;;;;;;;10.10;1.60;;;12.00;99.90;;;;;;5066980;28;20037;-64
2022/11/09 02:58:57;;;;;;;8.68;1.45;;;12.00;99.90;;;;;;5048640;28;20047;-66
2022/11/09 03:01:22;;;;;;;8.93;1.70;;;12.00;99.90;;;;;;5028583;28;20510;-66
2022/11/09 03:03:48;;;;;;;7.03;1.33;;;11.90;99.90;;;;;;5040002;28;20048;-66
2022/11/09 03:06:14;;;;;;;6.78;1.38;;;12.00;99.90;;;;;;5019320;28;20036;-66
2022/11/09 03:08:39;;;;;;;9.07;1.40;;;11.90;99.90;;;;;;5007917;28;20561;-65
2022/11/09 03:11:05;;;;;;;8.82;1.40;;;11.60;99.90;;;;;;5031712;28;20040;-66
2022/11/09 03:13:34;;;;;;;7.32;1.35;;;11.40;99.90;;;;;;5016394;28;20041;-64
2022/11/09 03:16:07;;;;;;;7.63;1.40;;;11.30;99.90;;;;;;5031800;28;20059;-65
2022/11/09 03:18:33;;;;;;;12.18;2.15;;;11.70;99.90;;;;;;5031391;28;20044;-63
2022/11/09 03:21:03;;;;;;;7.18;1.50;;;11.40;99.90;;;;;;5046727;28;20063;-64
2022/11/09 03:23:29;;;;;;;7.20;1.65;;;11.40;99.90;;;;;;5048038;28;20448;-64
2022/11/09 03:25:55;;;;;;;6.78;1.60;;;11.70;99.90;;;;;;5031977;28;20049;-65
2022/11/09 03:28:20;;;;;;;8.70;1.65;;;11.40;99.90;;;;;;5066010;28;20076;-63
2022/11/09 03:30:46;;;;;;;6.35;1.00;;;11.50;99.90;;;;;;5023963;28;20375;-64
2022/11/09 03:33:13;;;;;;;6.60;1.70;;;11.50;99.90;;;;;;5048477;28;20086;-64
2022/11/09 03:35:39;;;;;;;7.75;1.55;;;11.60;99.90;;;;;;5048526;28;20047;-64
2022/11/09 03:38:05;;;;;;;9.32;1.33;;;11.80;99.90;;;;;;5047168;28;20643;-63
2022/11/09 03:40:31;;;;;;;6.88;1.40;;;11.50;99.90;;;;;;5048220;28;20040;-63
2022/11/09 03:42:57;;;;;;;7.35;1.40;;;11.30;99.90;;;;;;5031083;28;20055;-64
2022/11/09 03:45:23;;;;;;;9.95;1.65;;;11.60;99.90;;;;;;5064842;28;20133;-65
2022/11/09 03:47:49;;;;;;;11.93;1.75;;;11.20;99.90;;;;;;5065132;28;20040;-64
2022/11/09 03:50:16;;;;;;;5.97;1.15;;;11.60;99.90;;;;;;5064872;28;20052;-64
2022/11/09 03:52:46;;;;;;;7.95;1.42;;;11.50;99.90;;;;;;5064118;28;20398;-65
2022/11/09 03:55:12;;;;;;;11.10;1.70;;;11.50;99.90;;;;;;5065155;28;20068;-64
2022/11/09 03:57:38;;;;;;;9.35;1.40;;;11.80;99.90;;;;;;5065628;28;20048;-64
2022/11/09 04:00:08;;;;;;;6.68;1.20;;;11.50;99.90;;;;;;5065612;28;20041;-65
2022/11/09 04:02:34;;;;;;;13.57;1.55;;;11.70;99.90;;;;;;5013809;28;20530;-62
2022/11/09 04:04:59;;;;;;;8.60;1.60;;;11.60;99.90;;;;;;5046988;28;20036;-63
2022/11/09 04:07:25;;;;;;;8.50;0.95;;;11.40;99.90;;;;;;5065229;28;20047;-63
2022/11/09 04:09:50;;;;;;;10.50;1.13;;;11.90;99.90;;;;;;5063485;28;20041;-64
2022/11/09 04:12:16;;;;;;;9.38;1.30;;;11.60;99.90;;;;;;5030138;28;20036;-63
2022/11/09 04:14:42;;;;;;;10.75;1.38;;;11.60;99.90;;;;;;5047534;28;20036;-64
2022/11/09 04:17:07;;;;;;;11.20;1.35;;;11.80;99.90;;;;;;5064988;28;20035;-64
2022/11/09 04:19:33;;;;;;;15.20;1.23;;;11.30;99.90;;;;;;5030572;28;20036;-63
2022/11/09 04:21:59;;;;;;;10.52;1.20;;;11.40;99.90;;;;;;5046699;28;20048;-64
2022/11/09 04:24:25;;;;;;;11.82;1.17;;;11.70;99.90;;;;;;5045294;28;20127;-63
2022/11/09 04:26:51;;;;;;;12.35;1.20;;;11.70;99.90;;;;;;5062669;28;20127;-65
2022/11/09 04:29:16;;;;;;;7.97;0.85;;;11.40;99.90;;;;;;5045784;28;20045;-64
2022/11/09 04:31:42;;;;;;;11.30;1.02;;;11.70;99.90;;;;;;5029875;28;20470;-64
2022/11/09 04:34:08;;;;;;;9.30;1.15;;;11.40;99.90;;;;;;5046111;28;20177;-63
2022/11/09 04:36:33;;;;;;;8.73;1.38;;;11.30;99.90;;;;;;5064526;28;20036;-64
2022/11/09 04:38:59;;;;;;;10.45;1.10;;;11.60;99.90;;;;;;5029018;28;20041;-65
2022/11/09 04:41:26;;;;;;;9.93;1.02;;;11.40;99.90;;;;;;5046024;28;20493;-64
2022/11/09 04:43:52;;;;;;;13.48;1.30;;;11.50;99.90;;;;;;5064832;28;20039;-64
2022/11/09 04:46:18;;;;;;;12.27;1.58;;;11.60;99.90;;;;;;5030469;28;20041;-63
2022/11/09 04:48:43;;;;;;;8.50;1.25;;;11.60;99.90;;;;;;5065310;28;20048;-63
2022/11/09 04:51:10;;;;;;;9.88;0.98;;;11.60;99.90;;;;;;5045632;28;20207;-65
2022/11/09 04:53:36;;;;;;;7.78;0.90;;;11.60;99.90;;;;;;5063679;28;20101;-64
2022/11/09 04:56:04;;;;;;;6.60;0.70;;;11.70;99.90;;;;;;5043937;28;20102;-63
2022/11/09 04:58:29;;;;;;;10.45;1.23;;;11.60;99.90;;;;;;5046737;28;20558;-63
2022/11/09 05:01:10;;;;;;;8.13;1.08;;;11.50;99.90;;;;;;5029772;28;20141;-63
2022/11/09 05:03:36;;;;;;;7.53;1.38;;;11.30;99.90;;;;;;5015557;28;20449;-65
2022/11/09 05:06:30;;;;;;;9.73;1.02;;;11.70;99.90;;;;;;5036800;28;20773;-66
2022/11/09 05:08:54;;;;;;;8.05;1.20;;;11.50;99.90;;;;;;5035934;28;20121;-66
2022/11/09 05:11:21;;;;;;;10.95;0.90;;;11.30;99.90;;;;;;5034213;28;20045;-66
2022/11/09 05:13:47;;;;;;;8.63;1.08;;;11.50;99.90;;;;;;5021530;28;20112;-64
2022/11/09 05:16:13;;;;;;;10.95;1.17;;;11.50;99.90;;;;;;5036398;28;20302;-65
2022/11/09 05:18:38;;;;;;;10.20;1.83;;;11.50;99.90;;;;;;5017371;28;20506;-65
2022/11/09 05:21:04;;;;;;;9.63;1.17;;;11.70;99.90;;;;;;5055001;28;20047;-65
2022/11/09 05:26:14;;;;;;;10.48;1.00;;;11.60;99.90;;;;;;5036849;28;20213;-65
2022/11/09 05:28:40;;;;;;;12.40;1.27;;;11.40;99.90;;;;;;5037756;28;20078;-65
2022/11/09 05:31:06;;;;;;;9.48;1.10;;;11.80;99.90;;;;;;5040439;28;20346;-66
2022/11/09 05:33:32;;;;;;;9.48;1.75;;;11.70;99.90;;;;;;5038459;28;20518;-65
2022/11/09 05:35:58;;;;;;;10.15;1.20;;;11.70;99.90;;;;;;5024305;28;20089;-65
2022/11/09 05:38:24;;;;;;;9.30;1.20;;;11.50;99.90;;;;;;5023780;28;20575;-64
2022/11/09 05:40:51;;;;;;;9.05;1.27;;;11.70;99.90;;;;;;5039998;28;20602;-63
2022/11/09 05:43:17;;;;;;;7.72;1.35;;;11.40;99.90;;;;;;5005229;28;20052;-64
2022/11/09 05:45:43;;;;;;;9.15;1.13;;;11.70;99.90;;;;;;5057621;28;20048;-66
2022/11/09 05:48:10;;;;;;;7.57;0.90;;;11.70;99.90;;;;;;5039365;28;20037;-66
2022/11/09 05:50:37;;;;;;;10.85;1.40;;;11.70;99.90;;;;;;5039361;28;20148;-66
2022/11/09 05:53:03;;;;;;;8.38;1.45;;;11.80;99.90;;;;;;5007677;28;20040;-66
2022/11/09 05:55:28;;;;;;;6.65;1.20;;;11.80;99.90;;;;;;5022875;28;20454;-66
2022/11/09 05:57:54;;;;;;;8.35;1.30;;;11.70;99.90;;;;;;5038241;28;20107;-65
2022/11/09 06:00:21;;;;;;;7.93;1.00;;;11.50;99.90;;;;;;5055272;28;20036;-64
2022/11/09 06:02:46;;;;;;;9.60;1.50;;;11.60;99.90;;;;;;5039675;28;20044;-65
2022/11/09 06:05:12;;;;;;;11.10;1.10;;;11.90;99.90;;;;;;5055028;28;20067;-65
2022/11/09 06:07:38;;;;;;;12.77;1.63;;;11.90;99.90;;;;;;5057079;28;20146;-65
2022/11/09 06:10:04;;;;;;;8.25;1.42;;;11.80;99.90;;;;;;5022742;28;20079;-64
2022/11/09 06:12:30;;;;;;;12.63;1.50;;;11.80;99.90;;;;;;5021201;28;20064;-65
2022/11/09 06:14:56;;;;;;;10.82;1.30;;;11.70;99.90;;;;;;5021110;28;20368;-63
2022/11/09 06:17:22;;;;;;;8.25;1.40;;;11.60;99.90;;;;;;5055280;28;20128;-65
2022/11/09 06:19:47;;;;;;;8.30;1.38;;;11.80;99.90;;;;;;5020648;28;20036;-65
2022/11/09 06:22:13;;;;;;;7.20;0.95;;;11.60;99.90;;;;;;5021407;28;20083;-65
2022/11/09 06:24:39;;;;;;;8.75;1.83;;;11.50;99.90;;;;;;5022781;28;20056;-65
2022/11/09 06:27:05;;;;;;;11.13;1.50;;;11.80;99.90;;;;;;5037502;28;20157;-65
2022/11/09 06:29:30;;;;;;;7.57;1.17;;;11.80;99.90;;;;;;5038467;28;20101;-65
2022/11/09 06:31:56;;;;;;;9.77;1.40;;;11.80;99.90;;;;;;5036287;28;20575;-65
2022/11/09 06:34:22;;;;;;;7.82;1.17;;;11.80;99.90;;;;;;5038871;28;20400;-65
2022/11/09 06:36:48;;;;;;;10.00;1.20;;;11.40;99.90;;;;;;5038898;28;20143;-65
2022/11/09 06:39:13;;;;;;;10.10;1.15;;;11.60;99.90;;;;;;5040648;28;20036;-64
2022/11/09 06:41:39;;;;;;;10.48;1.23;;;11.30;99.90;;;;;;5039291;28;20082;-64
2022/11/09 06:44:05;;;;;;;12.68;1.50;;;11.60;99.90;;;;;;5062195;28;20044;-63
2022/11/09 06:46:32;;;;;;;9.48;1.23;;;11.70;99.90;;;;;;5048048;28;20067;-64
2022/11/09 06:48:58;;;;;;;9.98;1.52;;;11.50;99.90;;;;;;5040926;28;20501;-63
2022/11/09 06:51:24;;;;;;;8.25;1.27;;;11.40;99.90;;;;;;5047191;28;20040;-63
2022/11/09 06:53:50;;;;;;;7.85;1.27;;;11.60;99.90;;;;;;5049273;28;20049;-64
2022/11/09 06:56:16;;;;;;;13.95;1.75;;;11.70;99.90;;;;;;5031661;28;20044;-66
2022/11/09 06:58:41;;;;;;;8.80;1.38;;;11.60;99.90;;;;;;5066816;28;20036;-64
2022/11/09 07:01:15;;;;;;;9.73;1.17;;;11.50;99.90;;;;;;5048591;28;20093;-63
2022/11/09 07:03:41;;;;;;;9.95;1.13;;;11.20;99.90;;;;;;5065701;28;20052;-63
2022/11/09 07:06:09;;;;;;;8.43;1.50;;;11.50;99.90;;;;;;5048566;28;20411;-65
2022/11/09 07:08:35;;;;;;;9.80;1.40;;;11.60;99.90;;;;;;5048338;28;20332;-66
2022/11/09 07:11:05;;;;;;;9.60;1.30;;;11.60;99.90;;;;;;5047449;28;20036;-64
2022/11/09 07:13:31;;;;;;;10.32;1.10;;;11.50;99.90;;;;;;5022314;28;20491;-64
2022/11/09 07:15:57;;;;;;;6.82;0.95;;;11.60;99.90;;;;;;5067061;28;20173;-64
2022/11/09 07:18:22;;;;;;;13.05;1.60;;;11.60;99.90;;;;;;5048226;28;20044;-63
2022/11/09 07:20:51;;;;;;;10.77;1.52;;;11.70;99.90;;;;;;5048651;28;20048;-65
2022/11/09 07:23:17;;;;;;;12.00;1.38;;;11.30;99.90;;;;;;5067216;28;20051;-63
2022/11/09 07:25:43;;;;;;;7.88;1.20;;;11.60;99.90;;;;;;5047045;28;20105;-66
2022/11/09 07:28:10;;;;;;;10.48;1.42;;;11.60;99.90;;;;;;5048692;28;20490;-64
2022/11/09 07:30:37;;;;;;;10.70;1.40;;;11.70;99.90;;;;;;5048669;28;20025;-64
2022/11/09 07:33:08;;;;;;;12.50;1.25;;;11.60;99.90;;;;;;5030471;28;20079;-63
2022/11/09 07:35:34;;;;;;;9.05;1.10;;;11.50;99.90;;;;;;5051814;28;20123;-65
2022/11/09 07:38:00;;;;;;;9.13;0.88;;;11.50;99.90;;;;;;5033655;28;20439;-65
2022/11/09 07:40:26;;;;;;;10.00;1.35;;;11.70;99.90;;;;;;5054528;28;20040;-65
2022/11/09 07:42:52;;;;;;;10.15;1.48;;;11.50;99.90;;;;;;5021044;28;20055;-65
2022/11/09 07:45:17;;;;;;;7.35;0.85;;;11.60;99.90;;;;;;5053715;28;20143;-65
2022/11/09 07:47:43;;;;;;;8.85;1.45;;;11.80;99.90;;;;;;5035962;28;20359;-64
2022/11/09 07:50:09;;;;;;;6.82;0.85;;;11.60;99.90;;;;;;5053269;28;20036;-65
2022/11/09 07:52:35;;;;;;;9.80;1.60;;;11.70;99.90;;;;;;5018676;28;20040;-64
2022/11/09 07:55:00;;;;;;;10.15;1.30;;;11.80;99.90;;;;;;5036333;28;20037;-65
2022/11/09 07:57:26;;;;;;;9.85;1.20;;;11.80;99.90;;;;;;5037188;28;20402;-65
2022/11/09 07:59:52;;;;;;;8.00;1.67;;;11.80;99.90;;;;;;5020622;28;20980;-65
2022/11/09 08:02:18;;;;;;;10.38;1.27;;;12.10;99.90;;;;;;5018990;28;20695;-66
2022/11/09 08:04:43;;;;;;;9.40;1.13;;;11.80;99.90;;;;;;5055826;28;20538;-66
2022/11/09 08:07:09;;;;;;;8.40;0.95;;;11.90;99.90;;;;;;5021324;28;20033;-65
2022/11/09 08:09:35;;;;;;;8.15;1.30;;;12.20;99.90;;;;;;5028077;28;20032;-64
2022/11/09 08:12:00;;;;;;;12.45;1.42;;;12.30;99.90;;;;;;5062140;28;20413;-64
2022/11/09 08:14:26;;;;;;;9.75;0.90;;;12.20;99.90;;;;;;5060804;28;20047;-65
2022/11/09 08:16:51;;;;;;;12.65;1.58;;;12.10;99.90;;;;;;5031238;28;20037;-64
2022/11/09 08:19:17;;;;;;;8.50;0.95;;;12.30;99.90;;;;;;5031517;28;20053;-64
2022/11/09 08:21:43;;;;;;;11.88;1.27;;;12.20;99.90;;;;;;5030642;28;20040;-65
2022/11/09 08:24:09;;;;;;;17.27;2.22;;;12.40;99.90;;;;;;5030967;28;20040;-64
2022/11/09 08:26:34;;;;;;;9.15;1.33;;;12.30;99.90;;;;;;5013165;28;20086;-65
2022/11/09 08:29:00;;;;;;;11.77;1.52;;;12.50;99.90;;;;;;5046872;28;20072;-65
2022/11/09 08:31:26;;;;;;;8.68;0.95;;;12.60;99.90;;;;;;5029507;28;20029;-65
2022/11/09 08:33:52;;;;;;;10.23;1.55;;;12.40;99.90;;;;;;5028726;28;20118;-64
2022/11/09 08:36:19;;;;;;;8.77;1.23;;;12.40;99.90;;;;;;5042454;28;20114;-64
2022/11/09 08:38:45;;;;;;;10.10;1.17;;;12.80;99.90;;;;;;5061349;28;20047;-64
2022/11/09 08:41:12;;;;;;;10.40;1.23;;;12.60;99.90;;;;;;5026115;28;20510;-66
2022/11/09 08:43:38;;;;;;;14.68;1.52;;;12.80;99.90;;;;;;5045767;28;20052;-63
2022/11/09 08:46:04;;;;;;;12.98;1.73;;;13.00;99.90;;;;;;5046172;28;20043;-63
2022/11/09 08:48:32;;;;;;;8.43;1.10;;;13.40;99.90;;;;;;5029828;28;20059;-63
2022/11/09 08:50:59;;;;;;;12.93;1.67;;;13.20;99.90;;;;;;5064963;28;20501;-65
2022/11/09 08:53:27;;;;;;;14.75;1.75;;;13.10;99.90;;;;;;5029597;28;20456;-65
2022/11/09 08:55:52;;;;;;;12.27;1.65;;;13.50;99.90;;;;;;5062546;28;20493;-65
2022/11/09 08:58:19;;;;;;;9.23;1.20;;;13.20;99.90;;;;;;5056012;28;20552;-66
2022/11/09 09:00:45;;;;;;;12.40;1.52;;;13.50;99.90;;;;;;5025963;28;20055;-64
2022/11/09 09:03:11;;;;;;;8.85;1.42;;;13.50;99.90;;;;;;5059993;28;20115;-65
2022/11/09 09:05:37;;;;;;;11.82;1.52;;;13.50;99.90;;;;;;5026408;28;20040;-64
2022/11/09 09:08:05;;;;;;;10.13;1.50;;;13.30;99.90;;;;;;5043461;28;20207;-66
2022/11/09 09:10:31;;;;;;;11.68;1.40;;;13.40;99.90;;;;;;5039469;28;20227;-65
2022/11/09 09:12:57;;;;;;;10.27;1.60;;;13.50;99.90;;;;;;5026952;28;20040;-64
2022/11/09 09:15:23;;;;;;;11.07;1.20;;;14.10;99.90;;;;;;5061469;28;20090;-64
2022/11/09 09:17:49;;;;;;;9.85;1.38;;;14.10;99.90;;;;;;5009440;28;20040;-65
2022/11/09 09:20:16;;;;;;;10.00;1.30;;;14.80;99.90;;;;;;5025677;28;20036;-64
2022/11/09 09:22:42;;;;;;;9.93;0.95;;;14.80;99.90;;;;;;5010427;28;20067;-64
2022/11/09 09:25:08;;;;;;;8.60;1.02;;;15.20;99.90;;;;;;5025109;28;20040;-64
2022/11/09 09:27:34;;;;;;;10.35;1.55;;;15.10;99.90;;;;;;5041056;28;20419;-64
2022/11/09 09:30:00;;;;;;;10.95;1.63;;;15.10;99.90;;;;;;5025783;28;20556;-64
2022/11/09 09:32:26;;;;;;;10.82;1.73;;;15.30;99.90;;;;;;5060021;28;20043;-64
2022/11/09 09:34:52;;;;;;;11.23;1.95;;;15.20;99.90;;;;;;5041646;28;20146;-66
2022/11/09 09:37:18;;;;;;;8.85;1.08;;;15.50;99.90;;;;;;5042884;28;20161;-65
2022/11/09 09:39:44;;;;;;;9.20;1.42;;;15.70;99.90;;;;;;5026427;28;20734;-65
2022/11/09 09:42:19;;;;;;;12.25;1.98;;;15.40;99.90;;;;;;5054353;28;20249;-66
2022/11/09 09:45:06;;;;;;;10.80;1.58;;;15.50;99.90;;;;;;5044151;28;20080;-66
2022/11/09 09:47:54;;;;;;;10.15;1.40;;;15.90;99.90;;;;;;5040056;28;20040;-64
2022/11/09 09:50:28;;;;;;;12.10;1.58;;;16.10;99.90;;;;;;5039217;28;20226;-65
2022/11/09 09:53:12;;;;;;;11.32;1.75;;;15.90;99.90;;;;;;5058972;28;20498;-65
2022/11/09 09:55:43;;;;;;;6.07;0.80;;;16.20;99.90;;;;;;5010682;28;20036;-65
2022/11/09 09:58:22;;;;;;;9.43;1.60;;;16.70;99.90;;;;;;5053716;28;20040;-65
2022/11/09 10:00:53;;;;;;;10.55;1.20;;;16.40;99.90;;;;;;5041174;28;20521;-64
2022/11/09 10:03:20;;;;;;;8.60;1.23;;;16.30;99.90;;;;;;5057938;28;20037;-65
2022/11/09 10:05:48;;;;;;;10.98;1.50;;;16.50;99.90;;;;;;5039097;28;20446;-64
2022/11/09 10:08:44;;;;;;;9.98;1.38;;;16.70;99.90;;;;;;5040886;28;20044;-65
2022/11/09 10:11:30;;;;;;;6.95;1.25;;;16.40;99.90;;;;;;5040551;28;20041;-64
2022/11/09 10:14:19;;;;;;;8.88;1.15;;;16.40;99.90;;;;;;5053824;28;20052;-64
2022/11/09 10:16:58;;;;;;;8.05;1.08;;;16.60;99.90;;;;;;5058189;28;20490;-65
2022/11/09 10:19:59;;;;;;;6.68;1.00;;;16.00;99.90;;;;;;5025592;28;20078;-65
2022/11/09 10:22:55;;;;;;;8.80;1.10;;;16.30;99.90;;;;;;5007397;28;20529;-64
2022/11/09 10:25:24;;;;;;;9.98;1.33;;;15.80;99.90;;;;;;5041003;28;20855;-64
2022/11/09 10:27:59;;;;;;;9.65;1.63;;;16.00;99.90;;;;;;5055954;28;20079;-65
2022/11/09 10:30:26;;;;;;;12.88;1.38;;;15.90;99.90;;;;;;5039242;28;20293;-64
2022/11/09 10:33:01;;;;;;;11.85;1.65;;;16.10;99.90;;;;;;5040299;28;20060;-64
2022/11/09 10:35:36;;;;;;;12.02;1.27;;;16.50;99.90;;;;;;5038497;28;20059;-64
2022/11/09 10:38:02;;;;;;;8.30;1.25;;;15.80;99.90;;;;;;5057316;28;20534;-64
2022/11/09 10:40:43;;;;;;;8.20;0.82;;;15.50;99.90;;;;;;5040329;28;20123;-64
2022/11/09 10:43:13;;;;;;;7.47;0.93;;;15.00;99.90;;;;;;5057168;28;20083;-66
2022/11/09 10:45:41;;;;;;;11.68;1.35;;;14.80;99.90;;;;;;5036676;28;20554;-66
2022/11/09 10:48:10;;;;;;;9.13;1.13;;;14.70;99.90;;;;;;5024192;28;20395;-65
2022/11/09 10:50:47;;;;;;;5.82;1.00;;;14.90;99.90;;;;;;5057555;28;20040;-66
2022/11/09 10:53:21;;;;;;;7.47;1.30;;;15.20;99.90;;;;;;5039018;28;20033;-66
2022/11/09 10:55:52;;;;;;;;;;;15.30;99.90;;;;;;5040341;28;20039;-66
2022/11/09 10:58:29;;;;;;;12.57;1.73;;;14.90;99.90;;;;;;5038940;28;20325;-65
2022/11/09 11:01:21;;;;;;;11.52;1.85;;;15.50;99.90;;;;;;5035024;28;21081;-64
2022/11/09 11:03:56;;;;;;;10.60;1.40;;;15.80;99.90;;;;;;5056659;28;20033;-64
2022/11/09 11:06:21;;;;;;;10.15;1.15;;;16.00;99.90;;;;;;5038194;28;20040;-65
2022/11/09 11:08:57;;;;;;;10.10;1.60;;;16.60;99.90;;;;;;5038421;28;20463;-65
2022/11/09 11:11:26;;;;;;;8.68;1.25;;;16.20;99.90;;;;;;5030149;28;20040;-65
2022/11/09 11:14:08;;;;;;;7.65;1.15;;;15.70;99.90;;;;;;5022863;28;20036;-65
2022/11/09 11:16:35;;;;;;;10.82;1.55;;;15.30;99.90;;;;;;5037947;28;20497;-65
2022/11/09 11:19:02;;;;;;;10.75;1.70;;;15.10;99.90;;;;;;5038291;28;20044;-65
2022/11/09 11:21:28;;;;;;;8.68;1.48;;;15.60;99.90;;;;;;5021690;28;20055;-65
2022/11/09 11:24:14;;;;;;;8.13;1.10;;;15.80;99.90;;;;;;5038220;28;20045;-65
2022/11/09 11:27:06;;;;;;;9.95;1.67;;;15.40;99.90;;;;;;5038689;28;20044;-64
2022/11/09 11:30:10;;;;;;;8.18;1.40;;;15.30;99.90;;;;;;5055167;28;20099;-64
2022/11/09 11:32:36;;;;;;;11.75;1.45;;;15.10;99.90;;;;;;4943529;28;20215;-65
2022/11/09 11:35:13;;;;;;;11.82;1.58;;;15.10;99.90;;;;;;5016748;28;20119;-65
2022/11/09 11:38:06;;;;;;;10.02;1.30;;;15.00;99.90;;;;;;5037573;28;20899;-65
2022/11/09 11:41:01;;;;;;;9.45;1.17;;;14.60;99.90;;;;;;5056965;28;20043;-65
2022/11/09 11:44:05;;;;;;;11.48;1.38;;;14.50;99.90;;;;;;5038338;28;20059;-65
2022/11/09 11:46:47;;;;;;;8.95;1.40;;;14.60;99.90;;;;;;5036536;28;20530;-65
2022/11/09 11:49:32;;;;;;;12.48;1.23;;;14.40;99.90;;;;;;5054351;28;20025;-64
2022/11/09 11:52:11;;;;;;;7.93;0.93;;;14.40;99.90;;;;;;5038480;28;20045;-65
2022/11/09 11:55:12;;;;;;;10.88;1.23;;;14.30;99.90;;;;;;5055393;28;20043;-65
2022/11/09 11:58:14;;;;;;;11.70;1.60;;;14.20;99.90;;;;;;5057090;28;20367;-66
2022/11/09 12:01:04;;;;;;;13.23;1.70;;;14.10;99.90;;;;;;5038419;28;20569;-64
2022/11/09 12:03:50;;;;;;;10.40;1.58;;;14.00;99.90;;;;;;5044162;28;20079;-64
2022/11/09 12:06:33;;;;;;;10.38;1.48;;;13.90;99.90;;;;;;4993531;28;20057;-64
2022/11/09 12:09:13;;;;;;;12.27;1.90;;;13.80;99.90;;;;;;5035882;28;20075;-65
2022/11/09 12:12:00;;;;;;;10.73;1.58;;;13.90;99.90;;;;;;5039120;28;20498;-65
2022/11/09 12:15:04;;;;;;;8.75;1.52;;;14.30;99.90;;;;;;5038542;28;20047;-65
2022/11/09 12:17:36;;;;;;;;;;;14.40;99.90;;;;;;4992518;28;20061;-65
2022/11/09 12:20:25;;;;;;;10.73;1.05;;;14.40;99.90;;;;;;4981937;28;19925;-65
2022/11/09 12:23:36;;;;;;;11.82;1.33;;;14.20;99.90;;;;;;5024054;28;20065;-65
2022/11/09 12:26:20;;;;;;;12.07;1.60;;;14.30;99.90;;;;;;4973717;28;20062;-66
2022/11/09 12:29:16;;;;;;;9.65;1.30;;;14.60;99.90;;;;;;5013530;28;20236;-64
2022/11/09 12:31:53;;;;;;;12.02;1.58;;;14.80;99.90;;;;;;5056712;28;20254;-65
2022/11/09 12:34:36;;;;;;;8.23;1.42;;;14.50;99.90;;;;;;5034874;28;20593;-65
2022/11/09 12:37:06;;;;;;;11.73;1.70;;;14.30;99.90;;;;;;5032989;28;20037;-65
2022/11/09 12:39:46;;;;;;;7.85;1.40;;;14.00;99.90;;;;;;5033935;28;20048;-66
2022/11/09 12:42:21;;;;;;;9.73;1.50;;;14.10;99.90;;;;;;5034084;28;20539;-65
2022/11/09 12:45:11;;;;;;;8.63;1.40;;;13.90;99.90;;;;;;5017456;28;20485;-65
2022/11/09 12:47:41;;;;;;;11.75;1.67;;;13.80;99.90;;;;;;5033639;28;20846;-64
2022/11/09 12:50:17;;;;;;;8.77;1.40;;;14.00;99.90;;;;;;5035914;28;20028;-64
2022/11/09 12:52:46;;;;;;;13.45;1.60;;;14.10;99.90;;;;;;5013581;28;20430;-65
2022/11/09 12:55:18;;;;;;;10.73;1.55;;;14.20;99.90;;;;;;5032475;28;20504;-64
2022/11/09 12:57:45;;;;;;;11.70;1.27;;;14.20;99.90;;;;;;5035270;28;20711;-64
2022/11/09 13:00:34;;;;;;;9.68;1.40;;;14.40;99.90;;;;;;5034233;28;20588;-65